createdAt,value
2018-03-26T17:52:44.478Z,9.20
2018-03-26T17:55:12.713Z,9.20
2018-03-26T17:57:42.143Z,9.20
2018-03-26T18:00:09.665Z,9.10
2018-03-26T18:02:37.104Z,9.10
2018-03-26T18:05:04.574Z,9.00
2018-03-26T18:07:32.052Z,9.00
2018-03-26T18:09:59.589Z,8.90
2018-03-26T18:12:27.804Z,8.90
2018-03-26T18:14:55.327Z,8.80
2018-03-26T18:17:22.819Z,8.80
2018-03-26T18:19:51.123Z,8.80
2018-03-26T18:22:19.373Z,8.70
2018-03-26T18:24:46.870Z,8.70
2018-03-26T18:27:14.429Z,8.70
2018-03-26T18:29:41.895Z,8.60
2018-03-26T18:32:10.124Z,8.50
2018-03-26T18:34:37.653Z,8.50
2018-03-26T18:37:05.908Z,8.40
2018-03-26T18:39:33.393Z,8.40
2018-03-26T18:42:00.835Z,8.30
2018-03-26T18:44:28.393Z,8.30
2018-03-26T18:46:55.823Z,8.20
2018-03-26T18:49:23.271Z,8.20
2018-03-26T18:51:50.761Z,8.10
2018-03-26T18:54:18.537Z,8.00
2018-03-26T18:56:45.988Z,7.90
2018-03-26T18:59:13.448Z,7.70
2018-03-26T19:01:40.916Z,7.60
2018-03-26T19:04:08.359Z,7.50
2018-03-26T19:06:35.831Z,7.50
2018-03-26T19:09:03.272Z,7.40
2018-03-26T19:11:31.809Z,7.40
2018-03-26T19:13:59.260Z,7.40
2018-03-26T19:16:26.709Z,7.50
2018-03-26T19:18:54.926Z,7.40
2018-03-26T19:21:22.384Z,7.40
2018-03-26T19:23:49.841Z,7.30
2018-03-26T19:26:17.300Z,7.20
2018-03-26T19:28:45.582Z,7.10
2018-03-26T19:31:13.042Z,7.00
2018-03-26T19:33:40.496Z,7.00
2018-03-26T19:36:07.951Z,6.90
2018-03-26T19:38:35.410Z,6.80
2018-03-26T19:41:02.857Z,6.80
2018-03-26T19:43:30.321Z,6.70
2018-03-26T19:45:57.769Z,6.60
2018-03-26T19:48:26.001Z,6.40
2018-03-26T19:50:53.500Z,6.40
2018-03-26T19:53:20.918Z,6.30
2018-03-26T19:55:48.373Z,6.20
2018-03-26T19:58:16.584Z,6.00
2018-03-26T20:00:44.049Z,6.00
2018-03-26T20:03:11.509Z,6.00
2018-03-26T20:05:38.961Z,6.00
2018-03-26T20:08:07.189Z,5.90
2018-03-26T20:10:34.653Z,5.90
2018-03-26T20:13:02.114Z,5.90
2018-03-26T20:15:29.598Z,5.90
2018-03-26T20:17:57.086Z,5.90
2018-03-26T20:20:24.572Z,5.90
2018-03-26T20:22:52.013Z,5.90
2018-03-26T20:25:19.488Z,5.90
2018-03-26T20:27:47.945Z,5.90
2018-03-26T20:30:16.175Z,5.90
2018-03-26T20:32:43.645Z,5.80
2018-03-26T20:35:11.124Z,5.80
2018-03-26T20:37:38.582Z,5.70
2018-03-26T20:40:06.167Z,5.60
2018-03-26T20:42:33.604Z,5.60
2018-03-26T20:45:01.068Z,5.50
2018-03-26T20:47:28.533Z,5.40
2018-03-26T20:49:55.989Z,5.30
2018-03-26T20:52:23.476Z,5.30
2018-03-26T20:54:50.939Z,5.20
2018-03-26T20:57:18.511Z,5.10
2018-03-26T20:59:45.953Z,5.10
2018-03-26T21:02:13.448Z,5.00
2018-03-26T21:04:40.928Z,5.00
2018-03-26T21:07:08.397Z,4.90
2018-03-26T21:09:35.859Z,4.90
2018-03-26T21:12:03.331Z,4.80
2018-03-26T21:14:30.831Z,4.80
2018-03-26T21:16:58.600Z,4.70
2018-03-26T21:19:26.072Z,4.60
2018-03-26T21:21:53.556Z,4.60
2018-03-26T21:24:21.093Z,4.50
2018-03-26T21:26:48.560Z,4.50
2018-03-26T21:29:16.020Z,4.50
2018-03-26T21:31:43.486Z,4.50
2018-03-26T21:34:11.701Z,4.40
2018-03-26T21:36:39.178Z,4.40
2018-03-26T21:39:06.625Z,4.40
2018-03-26T21:41:34.092Z,4.30
2018-03-26T21:44:01.550Z,4.30
2018-03-26T21:46:29.005Z,4.20
2018-03-26T21:48:57.241Z,4.00
2018-03-26T21:51:24.710Z,4.00
2018-03-26T21:53:52.180Z,4.00
2018-03-26T21:56:19.622Z,4.00
2018-03-26T21:58:47.964Z,4.00
2018-03-26T22:01:15.416Z,3.90
2018-03-26T22:03:42.913Z,4.00
2018-03-26T22:06:10.383Z,4.00
2018-03-26T22:08:37.853Z,4.00
2018-03-26T22:11:05.322Z,3.90
2018-03-26T22:13:32.774Z,3.90
2018-03-26T22:16:00.224Z,3.90
2018-03-26T22:18:27.700Z,3.80
2018-03-26T22:20:55.153Z,3.80
2018-03-26T22:23:22.624Z,3.80
2018-03-26T22:25:50.730Z,3.80
2018-03-26T22:28:18.206Z,3.70
2018-03-26T22:30:45.718Z,3.70
2018-03-26T22:33:13.268Z,3.70
2018-03-26T22:35:40.714Z,3.70
2018-03-26T22:38:08.173Z,3.70
2018-03-26T22:40:35.675Z,3.70
2018-03-26T22:43:03.925Z,3.70
2018-03-26T22:45:31.404Z,3.70
2018-03-26T22:47:58.860Z,3.70
2018-03-26T22:50:26.344Z,3.70
2018-03-26T22:52:53.801Z,3.70
2018-03-26T22:55:21.288Z,3.70
2018-03-26T22:57:48.777Z,3.60
2018-03-26T23:00:16.363Z,3.70
2018-03-26T23:02:43.813Z,3.70
2018-03-26T23:05:11.284Z,3.70
2018-03-26T23:07:38.799Z,3.70
2018-03-26T23:10:07.021Z,3.60
2018-03-26T23:12:34.481Z,3.60
2018-03-26T23:15:01.976Z,3.60
2018-03-26T23:17:29.430Z,3.60
2018-03-26T23:19:56.900Z,3.60
2018-03-26T23:22:36.215Z,3.60
2018-03-26T23:25:03.684Z,3.60
2018-03-26T23:27:31.139Z,3.70
2018-03-26T23:29:59.360Z,3.70
2018-03-26T23:32:26.846Z,3.60
2018-03-26T23:34:54.307Z,3.70
2018-03-26T23:37:21.767Z,3.80
2018-03-26T23:39:49.233Z,3.80
2018-03-26T23:42:16.703Z,3.70
2018-03-26T23:44:44.158Z,3.70
2018-03-26T23:47:11.624Z,3.60
2018-03-26T23:49:39.063Z,3.70
2018-03-26T23:52:06.532Z,3.70
2018-03-26T23:54:33.985Z,3.70
2018-03-26T23:57:01.453Z,3.70
2018-03-26T23:59:28.896Z,3.70
